Time;durP1;ratioP1;P1;durP2;ratioP2;P2;SDS_P1;SDS_P2;PMS_P1;PMS_P2;Temp;Humidity;BMP_temperature;BMP_pressure;BME280_temperature;BME280_humidity;BME280_pressure;Samples;Min_cycle;Max_cycle;Signal;HPM_P1;HPM_P2
2023/05/12 00:02:09;;;;;;;9.10;4.50;;;;;;;9.85;80.75;95058.13;5023295;28;20187;-80
2023/05/12 00:04:35;;;;;;;6.43;4.93;;;;;;;9.90;80.38;95063.59;5020733;28;20449;-79
2023/05/12 00:07:01;;;;;;;8.48;5.30;;;;;;;9.80;80.36;95040.31;5002583;28;20777;-79
2023/05/12 00:09:26;;;;;;;6.80;4.93;;;;;;;9.70;80.19;95029.38;5017017;28;20413;-79
2023/05/12 00:11:52;;;;;;;6.83;4.83;;;;;;;9.90;80.38;95068.03;5013438;28;20842;-79
2023/05/12 00:14:18;;;;;;;6.40;4.72;;;;;;;9.94;79.93;95064.81;5028385;28;20915;-79
2023/05/12 00:16:44;;;;;;;4.88;4.00;;;;;;;10.05;79.08;95063.38;5011152;28;20441;-78
2023/05/12 00:19:09;;;;;;;5.10;4.45;;;;;;;10.12;78.93;95059.72;5020218;28;20900;-78
2023/05/12 00:21:35;;;;;;;6.65;4.35;;;;;;;9.98;79.17;95062.56;5020245;28;20527;-79
2023/05/12 00:24:00;;;;;;;5.30;4.40;;;;;;;9.76;79.43;95038.31;5020092;28;20919;-79
2023/05/12 00:26:26;;;;;;;5.80;4.27;;;;;;;9.78;80.03;95066.00;5019510;28;20502;-79
2023/05/12 00:28:51;;;;;;;7.03;4.73;;;;;;;9.70;80.23;95057.47;5026267;28;20425;-79
2023/05/12 00:31:17;;;;;;;7.50;4.80;;;;;;;9.78;80.68;95059.91;5025031;28;20933;-79
2023/05/12 00:33:42;;;;;;;6.13;4.50;;;;;;;9.72;80.18;95066.78;5008384;28;21063;-79
2023/05/12 00:36:08;;;;;;;5.93;4.50;;;;;;;9.65;81.54;95063.34;5025961;28;20420;-79
2023/05/12 00:38:35;;;;;;;7.22;4.95;;;;;;;9.58;81.78;95064.34;5027427;28;21124;-79
2023/05/12 00:41:01;;;;;;;6.38;4.82;;;;;;;9.65;82.35;95065.97;5032292;28;20502;-79
2023/05/12 00:43:26;;;;;;;6.20;4.93;;;;;;;9.64;81.95;95056.47;5023936;28;20845;-79
2023/05/12 00:45:52;;;;;;;8.57;5.03;;;;;;;9.73;82.12;95067.59;5027902;28;20440;-79
2023/05/12 00:48:17;;;;;;;13.67;5.70;;;;;;;9.75;82.18;95071.66;5027192;28;20418;-79
2023/05/12 00:50:43;;;;;;;8.63;4.75;;;;;;;9.52;82.14;95057.25;5005637;28;20434;-79
2023/05/12 00:53:08;;;;;;;6.90;5.00;;;;;;;9.49;84.00;95065.56;5025998;28;20413;-78
2023/05/12 00:55:36;;;;;;;8.33;5.10;;;;;;;9.45;84.30;95073.81;5025113;28;20417;-78
2023/05/12 00:58:02;;;;;;;6.97;5.40;;;;;;;9.22;84.33;95057.59;5033995;28;20415;-79
2023/05/12 01:00:28;;;;;;;8.15;5.93;;;;;;;9.34;85.06;95074.38;5006078;28;20434;-79
2023/05/12 01:02:57;;;;;;;9.02;5.60;;;;;;;9.23;85.32;95063.66;5017347;28;20428;-79
2023/05/12 01:05:29;;;;;;;6.68;5.50;;;;;;;9.29;85.72;95081.25;5019087;28;20566;-79
2023/05/12 01:07:55;;;;;;;8.25;6.22;;;;;;;9.06;86.50;95055.31;5022782;28;20428;-79
2023/05/12 01:10:21;;;;;;;7.55;5.75;;;;;;;9.00;85.93;95050.81;4996038;28;20422;-79
2023/05/12 01:12:47;;;;;;;7.57;5.97;;;;;;;9.14;86.12;95081.41;5027744;28;20424;-79
2023/05/12 01:15:12;;;;;;;8.52;6.38;;;;;;;9.06;87.77;95077.13;5016958;28;20564;-79
2023/05/12 01:17:41;;;;;;;9.45;6.10;;;;;;;9.08;87.90;95061.97;5023562;28;20493;-79
2023/05/12 01:20:09;;;;;;;7.50;6.45;;;;;;;9.13;87.75;95074.53;5033315;28;20448;-78
2023/05/12 01:22:36;;;;;;;8.40;6.80;;;;;;;9.01;88.83;95069.00;5027045;28;20808;-79
2023/05/12 01:25:04;;;;;;;8.95;6.40;;;;;;;9.12;87.67;95085.22;5022284;28;20794;-78
2023/05/12 01:27:31;;;;;;;9.07;6.35;;;;;;;9.05;88.09;95065.00;5013766;28;20409;-79
2023/05/12 01:30:02;;;;;;;9.02;6.35;;;;;;;8.98;89.10;95090.44;5027685;28;20410;-78
2023/05/12 01:32:29;;;;;;;9.73;6.32;;;;;;;8.96;88.83;95081.13;5026023;28;20417;-78
2023/05/12 01:34:54;;;;;;;9.07;6.20;;;;;;;8.71;89.79;95049.31;5022708;28;20417;-80
2023/05/12 01:37:20;;;;;;;7.13;5.77;;;;;;;8.83;89.25;95087.09;5014402;28;20418;-79
2023/05/12 01:39:45;;;;;;;7.60;6.20;;;;;;;8.80;89.83;95082.25;5018677;28;20436;-79
2023/05/12 01:42:11;;;;;;;8.88;6.55;;;;;;;8.92;90.02;95079.88;5023981;28;20511;-79
2023/05/12 01:44:36;;;;;;;7.50;5.30;;;;;;;8.90;90.27;95074.03;5016471;28;20188;-79
2023/05/12 01:47:01;;;;;;;6.43;4.90;;;;;;;8.87;90.75;95088.34;5025553;28;20406;-79
2023/05/12 01:49:27;;;;;;;8.07;5.20;;;;;;;8.91;90.76;95086.13;5024097;28;20795;-79
2023/05/12 01:51:53;;;;;;;7.73;5.33;;;;;;;8.76;90.83;95083.63;5024237;28;20444;-80
2023/05/12 01:54:18;;;;;;;8.37;4.90;;;;;;;8.65;90.60;95082.34;5022893;28;20509;-79
2023/05/12 01:56:44;;;;;;;7.00;5.23;;;;;;;8.69;91.96;95080.16;5021680;28;20418;-79
2023/05/12 01:59:09;;;;;;;6.47;5.30;;;;;;;8.74;91.05;95074.31;5028031;28;20424;-79
2023/05/12 02:01:35;;;;;;;13.63;6.07;;;;;;;8.81;91.00;95077.81;5024179;28;20405;-80
2023/05/12 02:04:02;;;;;;;8.27;6.28;;;;;;;8.60;91.39;95058.53;5021914;28;20424;-79
2023/05/12 02:06:28;;;;;;;10.10;4.85;;;;;;;8.65;91.67;95076.28;5023017;28;20426;-79
2023/05/12 02:08:53;;;;;;;7.60;5.70;;;;;;;8.61;91.72;95078.50;5028282;28;21273;-80
2023/05/12 02:11:18;;;;;;;8.50;5.97;;;;;;;8.29;91.81;95039.75;5024187;28;20874;-80
2023/05/12 02:13:44;;;;;;;7.93;5.83;;;;;;;8.52;92.26;95078.84;5021809;28;20424;-80
2023/05/12 02:16:10;;;;;;;8.10;6.30;;;;;;;8.42;92.14;95075.75;5021628;28;20464;-81
2023/05/12 02:18:35;;;;;;;6.90;5.85;;;;;;;8.05;91.79;95030.47;5021304;28;20422;-80
2023/05/12 02:21:01;;;;;;;7.13;5.72;;;;;;;8.40;92.24;95075.13;5021970;28;20535;-79
2023/05/12 02:23:26;;;;;;;8.27;6.13;;;;;;;8.31;93.08;95080.53;5032685;28;20413;-80
2023/05/12 02:25:52;;;;;;;10.10;6.27;;;;;;;8.41;93.75;95074.13;5032305;28;20886;-80
2023/05/12 02:28:17;;;;;;;8.70;5.65;;;;;;;8.28;93.71;95077.47;5024524;28;20441;-80
2023/05/12 02:30:47;;;;;;;7.95;5.72;;;;;;;8.33;94.09;95065.41;5014552;28;20418;-81
2023/05/12 02:33:16;;;;;;;7.85;5.50;;;;;;;8.42;93.96;95075.75;5024323;28;20409;-80
2023/05/12 02:35:43;;;;;;;10.05;5.75;;;;;;;8.57;93.94;95079.06;5017578;28;20432;-81
2023/05/12 02:38:09;;;;;;;6.30;4.30;;;;;;;8.53;92.99;95081.28;5030161;28;20894;-80
2023/05/12 02:40:34;;;;;;;8.40;4.65;;;;;;;8.45;93.00;95078.81;5032270;28;20448;-80
2023/05/12 02:43:00;;;;;;;5.80;4.17;;;;;;;8.23;93.49;95046.53;5028032;28;20450;-81
2023/05/12 02:45:26;;;;;;;6.57;4.07;;;;;;;8.08;93.22;95058.13;5021171;28;20418;-80
2023/05/12 02:47:51;;;;;;;5.50;3.30;;;;;;;8.03;93.55;95039.56;5030131;28;20448;-80
2023/05/12 02:50:17;;;;;;;5.43;3.70;;;;;;;8.31;93.43;95077.09;5031938;28;20506;-80
2023/05/12 02:52:42;;;;;;;4.27;3.00;;;;;;;7.85;93.76;95025.13;5022196;28;20421;-81
2023/05/12 02:55:08;;;;;;;4.50;3.22;;;;;;;8.18;92.98;95076.97;5023307;28;20793;-80
2023/05/12 02:57:33;;;;;;;7.07;3.10;;;;;;;8.17;93.51;95080.59;5023494;28;20428;-81
2023/05/12 03:00:00;;;;;;;5.33;3.60;;;;;;;8.07;94.12;95080.91;5022862;28;20446;-80
2023/05/12 03:02:25;;;;;;;4.88;3.30;;;;;;;7.99;94.24;95085.47;5022926;28;20416;-81
2023/05/12 03:04:51;;;;;;;5.77;3.73;;;;;;;7.86;93.93;95046.88;5023233;28;20511;-81
2023/05/12 03:07:16;;;;;;;6.97;3.70;;;;;;;7.60;94.32;95013.41;5014279;28;20476;-80
2023/05/12 03:09:42;;;;;;;4.70;3.80;;;;;;;8.16;93.98;95092.88;5022668;28;20423;-81
2023/05/12 03:12:07;;;;;;;5.83;3.77;;;;;;;7.55;93.49;95011.34;5018422;28;20477;-80
2023/05/12 03:14:33;;;;;;;7.95;4.63;;;;;;;8.07;93.63;95085.34;5003118;28;20418;-80
2023/05/12 03:16:58;;;;;;;5.80;3.97;;;;;;;7.84;93.87;95060.19;5021451;28;20414;-80
2023/05/12 03:19:24;;;;;;;8.27;3.87;;;;;;;7.90;94.61;95087.44;5022877;28;20444;-80
2023/05/12 03:21:49;;;;;;;8.30;4.80;;;;;;;7.87;94.86;95078.13;5030393;28;20889;-81
2023/05/12 03:24:15;;;;;;;6.88;4.57;;;;;;;7.83;95.09;95092.63;5022313;28;20421;-80
2023/05/12 03:26:40;;;;;;;8.77;4.60;;;;;;;7.94;95.37;95104.41;5022251;28;20421;-80
2023/05/12 03:29:06;;;;;;;7.23;4.97;;;;;;;7.82;94.53;95077.88;5010864;28;20414;-80
2023/05/12 03:31:32;;;;;;;7.22;4.57;;;;;;;7.90;95.38;95097.91;5020714;28;20441;-80
2023/05/12 03:33:57;;;;;;;7.03;5.05;;;;;;;8.02;95.33;95098.22;5020296;28;20419;-82
2023/05/12 03:36:23;;;;;;;8.87;5.30;;;;;;;8.07;95.35;95101.88;5011683;28;21094;-81
2023/05/12 03:38:48;;;;;;;11.97;5.70;;;;;;;8.01;94.79;95100.03;5011651;28;21199;-81
2023/05/12 03:41:16;;;;;;;8.63;5.27;;;;;;;8.07;94.80;95094.03;5020091;28;20935;-80
2023/05/12 03:43:41;;;;;;;7.07;5.18;;;;;;;7.83;94.82;95055.94;5019825;28;20414;-80
2023/05/12 03:46:07;;;;;;;7.05;5.03;;;;;;;8.07;94.28;95101.88;5019935;28;20894;-81
2023/05/12 03:48:32;;;;;;;7.37;4.67;;;;;;;7.84;94.58;95052.31;5014234;28;20418;-79
2023/05/12 03:50:57;;;;;;;6.63;4.50;;;;;;;8.08;94.64;95107.94;5012454;28;20200;-79
2023/05/12 03:53:23;;;;;;;7.25;5.00;;;;;;;8.18;94.91;95111.88;5002581;28;20501;-80
2023/05/12 03:55:48;;;;;;;7.90;4.90;;;;;;;8.26;94.54;95108.31;5021770;28;20176;-79
2023/05/12 03:58:16;;;;;;;7.67;5.43;;;;;;;8.37;94.62;95114.88;5021289;28;20421;-83
2023/05/12 04:00:41;;;;;;;9.55;5.40;;;;;;;8.15;93.88;95090.47;5021808;28;20520;-82
2023/05/12 04:03:06;;;;;;;9.13;5.20;;;;;;;8.19;94.45;95108.25;5014732;28;20505;-79
2023/05/12 04:05:32;;;;;;;6.40;5.03;;;;;;;8.25;94.49;95117.16;5025223;28;20554;-80
2023/05/12 04:07:57;;;;;;;8.93;5.73;;;;;;;7.89;94.67;95052.53;5031873;28;20426;-79
2023/05/12 04:10:23;;;;;;;8.47;5.20;;;;;;;8.48;93.99;95122.19;5024010;28;20811;-79
2023/05/12 04:12:48;;;;;;;7.50;5.50;;;;;;;8.21;94.10;95113.31;5018936;28;20429;-79
2023/05/12 04:15:13;;;;;;;8.43;5.37;;;;;;;8.35;94.14;95125.56;5026286;28;20421;-82
2023/05/12 04:17:39;;;;;;;9.17;5.43;;;;;;;8.15;94.87;95104.38;5023229;28;20414;-81
2023/05/12 04:20:06;;;;;;;8.88;5.25;;;;;;;8.35;94.63;95132.59;5023990;28;20446;-77
2023/05/12 04:22:31;;;;;;;6.60;4.77;;;;;;;8.26;94.43;95121.41;5024362;28;20188;-78
2023/05/12 04:24:57;;;;;;;7.07;4.57;;;;;;;8.29;93.84;95124.47;5025656;28;20447;-77
2023/05/12 04:27:22;;;;;;;9.17;5.30;;;;;;;8.12;94.62;95096.09;5025104;28;21010;-82
2023/05/12 04:29:47;;;;;;;7.10;4.40;;;;;;;8.09;94.05;95102.53;5028018;28;20420;-81
2023/05/12 04:32:13;;;;;;;6.68;4.85;;;;;;;8.32;93.55;95126.72;5013846;28;20421;-81
2023/05/12 04:34:38;;;;;;;7.67;5.20;;;;;;;8.37;94.15;95139.28;5013695;28;20441;-81
2023/05/12 04:37:04;;;;;;;7.17;5.03;;;;;;;8.22;93.23;95136.69;5022453;28;21000;-80
2023/05/12 04:39:29;;;;;;;8.20;5.20;;;;;;;8.25;93.95;95117.16;5030055;28;20444;-79
2023/05/12 04:41:55;;;;;;;9.00;5.00;;;;;;;8.09;94.63;95125.31;5016819;28;20423;-78
2023/05/12 04:44:21;;;;;;;6.55;4.75;;;;;;;8.03;93.88;95102.47;5002495;28;20995;-82
2023/05/12 04:46:49;;;;;;;7.10;4.60;;;;;;;8.17;94.01;95130.41;5025963;28;21031;-82
2023/05/12 04:49:14;;;;;;;7.75;4.80;;;;;;;8.17;94.24;95117.31;5020822;28;20429;-80
2023/05/12 04:51:41;;;;;;;7.13;4.70;;;;;;;8.40;94.12;95130.22;5023422;28;20418;-81
2023/05/12 04:54:10;;;;;;;7.20;4.40;;;;;;;8.28;92.59;95120.22;5022221;28;20435;-81
2023/05/12 04:56:36;;;;;;;7.45;5.45;;;;;;;8.27;93.26;95130.91;5019248;28;20413;-80
2023/05/12 04:59:01;;;;;;;7.05;4.68;;;;;;;8.38;93.83;95135.69;5022552;28;20441;-80
2023/05/12 05:01:26;;;;;;;8.33;5.03;;;;;;;8.35;93.59;95116.88;5022803;28;20438;-80
2023/05/12 05:03:52;;;;;;;5.83;4.30;;;;;;;8.59;93.41;95129.56;5011885;28;20428;-80
2023/05/12 05:06:17;;;;;;;7.33;4.83;;;;;;;8.49;92.83;95108.09;5024925;28;20412;-81
2023/05/12 05:08:43;;;;;;;7.17;4.57;;;;;;;8.58;92.52;95131.38;5025957;28;20424;-80
2023/05/12 05:11:08;;;;;;;7.57;4.93;;;;;;;8.43;92.16;95111.47;5013949;28;20590;-79
2023/05/12 05:13:34;;;;;;;6.73;4.93;;;;;;;8.49;93.18;95132.50;5017159;28;20839;-78
2023/05/12 05:15:59;;;;;;;7.93;4.67;;;;;;;8.42;93.11;95146.59;5020087;28;20438;-79
2023/05/12 05:18:25;;;;;;;7.90;5.00;;;;;;;8.34;93.55;95116.06;5014108;28;20406;-79
2023/05/12 05:20:51;;;;;;;8.75;5.00;;;;;;;8.47;92.85;95136.34;5021699;28;20492;-79
2023/05/12 05:23:16;;;;;;;7.10;4.27;;;;;;;8.46;93.39;95139.97;5011872;28;20176;-78
2023/05/12 05:25:41;;;;;;;6.60;4.20;;;;;;;8.47;93.47;95138.97;5023834;28;20669;-80
2023/05/12 05:28:07;;;;;;;8.73;4.10;;;;;;;8.40;93.31;95117.09;5023461;28;20193;-79
2023/05/12 05:30:32;;;;;;;10.27;5.23;;;;;;;8.55;93.15;95142.25;5023018;28;20216;-78
2023/05/12 05:32:58;;;;;;;7.13;4.10;;;;;;;8.56;93.35;95143.06;5022405;28;20176;-79
2023/05/12 05:35:23;;;;;;;7.73;4.33;;;;;;;8.61;92.74;95144.13;5019560;28;20256;-79
2023/05/12 05:37:52;;;;;;;6.17;4.20;;;;;;;8.70;92.79;95147.41;5009210;28;20197;-79
2023/05/12 05:40:18;;;;;;;6.73;4.17;;;;;;;8.62;92.38;95147.53;5019647;28;20199;-80
2023/05/12 05:42:44;;;;;;;9.40;5.40;;;;;;;8.56;93.06;95135.19;5025494;28;20186;-79
2023/05/12 05:45:10;;;;;;;5.47;3.87;;;;;;;8.57;92.77;95131.56;5009637;28;20177;-79
2023/05/12 05:47:36;;;;;;;8.60;4.47;;;;;;;8.48;92.89;95137.94;5023074;28;20184;-79
2023/05/12 05:50:02;;;;;;;8.27;4.50;;;;;;;8.46;93.67;95135.53;5025554;28;20176;-80
2023/05/12 05:52:28;;;;;;;9.93;4.70;;;;;;;8.53;93.36;95146.88;5028840;28;20184;-77
2023/05/12 05:54:53;;;;;;;7.77;4.90;;;;;;;8.59;93.27;95156.59;5021532;28;20206;-76
2023/05/12 05:57:20;;;;;;;5.27;3.67;;;;;;;8.40;93.17;95131.03;5016325;28;20211;-76
2023/05/12 05:59:45;;;;;;;9.93;4.77;;;;;;;8.52;93.46;95149.69;5021265;28;20203;-79
2023/05/12 06:02:10;;;;;;;7.40;4.47;;;;;;;8.39;94.00;95154.84;5023243;28;20176;-79
2023/05/12 06:04:36;;;;;;;6.80;4.73;;;;;;;8.39;93.91;95139.88;5021070;28;20253;-79
2023/05/12 06:07:01;;;;;;;7.97;4.87;;;;;;;8.55;94.08;95149.31;5014981;28;20638;-79
2023/05/12 06:09:27;;;;;;;10.27;5.17;;;;;;;8.62;93.63;95145.75;5018376;28;20191;-81
2023/05/12 06:11:53;;;;;;;7.57;4.77;;;;;;;8.80;92.36;95158.38;5001490;28;20235;-81
2023/05/12 06:14:18;;;;;;;8.17;5.30;;;;;;;8.77;92.11;95137.75;5011925;28;20199;-81
2023/05/12 06:16:44;;;;;;;9.00;5.20;;;;;;;9.01;91.25;95160.09;5013378;28;20176;-81
2023/05/12 06:19:10;;;;;;;8.87;4.73;;;;;;;9.08;90.84;95160.97;5022804;28;20259;-80
2023/05/12 06:21:36;;;;;;;8.50;4.90;;;;;;;9.04;90.90;95165.78;5010806;28;20204;-81
2023/05/12 06:24:01;;;;;;;7.03;5.00;;;;;;;9.01;90.72;95155.66;5013985;28;20923;-78
2023/05/12 06:26:27;;;;;;;10.13;4.50;;;;;;;8.57;90.89;95102.69;5027420;28;20172;-78
2023/05/12 06:28:53;;;;;;;6.60;4.53;;;;;;;8.98;90.73;95160.50;5004361;28;20184;-78
2023/05/12 06:31:18;;;;;;;7.47;4.33;;;;;;;9.03;91.01;95173.84;4987948;28;20646;-78
2023/05/12 06:33:44;;;;;;;8.43;4.90;;;;;;;9.19;89.95;95164.84;4990705;28;20204;-80
2023/05/12 06:36:10;;;;;;;10.87;4.57;;;;;;;9.22;90.06;95172.34;5018878;28;20172;-80
2023/05/12 06:38:36;;;;;;;11.77;5.00;;;;;;;9.13;89.41;95145.44;5007858;28;20215;-81
2023/05/12 06:41:01;;;;;;;14.73;5.77;;;;;;;9.45;89.87;95175.47;5021029;28;20656;-80
2023/05/12 06:43:26;;;;;;;7.87;4.43;;;;;;;9.46;89.25;95183.16;5021484;28;20702;-79
2023/05/12 06:45:52;;;;;;;6.60;4.77;;;;;;;9.35;88.88;95161.88;5021708;28;20194;-79
2023/05/12 06:48:17;;;;;;;7.07;4.50;;;;;;;9.51;88.60;95173.91;5019098;28;20172;-78
2023/05/12 06:50:44;;;;;;;8.63;5.43;;;;;;;9.50;87.71;95175.72;5023366;28;20184;-76
2023/05/12 06:53:09;;;;;;;9.50;4.60;;;;;;;9.43;87.83;95169.59;5027905;28;20210;-76
2023/05/12 06:55:35;;;;;;;8.67;4.73;;;;;;;9.49;87.17;95186.41;5025933;28;20214;-76
2023/05/12 06:58:00;;;;;;;8.40;4.23;;;;;;;9.39;87.23;95160.50;5021126;28;20183;-77
2023/05/12 07:00:26;;;;;;;9.50;4.87;;;;;;;9.56;87.54;95176.75;4998372;28;20200;-77
2023/05/12 07:02:51;;;;;;;8.90;4.43;;;;;;;9.49;86.98;95163.59;5031254;28;20163;-77
2023/05/12 07:05:17;;;;;;;17.07;5.40;;;;;;;9.52;86.80;95157.91;5013940;28;20188;-78
2023/05/12 07:07:44;;;;;;;8.20;5.00;;;;;;;9.60;86.74;95176.13;5019750;28;20184;-78
2023/05/12 07:10:09;;;;;;;10.50;4.73;;;;;;;9.53;87.30;95177.94;5018332;28;20172;-79
2023/05/12 07:12:36;;;;;;;8.80;5.63;;;;;;;9.46;86.49;95164.78;5030692;28;20193;-83
2023/05/12 07:15:01;;;;;;;9.27;4.90;;;;;;;9.18;86.64;95144.84;5020023;28;20176;-78
2023/05/12 07:17:27;;;;;;;5.93;4.03;;;;;;;9.25;86.41;95180.66;5020931;28;20667;-78
2023/05/12 07:19:53;;;;;;;8.13;5.00;;;;;;;9.29;86.99;95181.06;5018403;28;20270;-81
2023/05/12 07:22:19;;;;;;;15.43;4.63;;;;;;;9.31;87.92;95181.69;5023240;28;20176;-81
2023/05/12 07:24:44;;;;;;;12.30;5.00;;;;;;;9.20;88.74;95161.22;5029794;28;20251;-78
2023/05/12 07:27:10;;;;;;;7.60;5.10;;;;;;;9.42;88.07;95176.69;5032756;28;20213;-77
2023/05/12 07:29:35;;;;;;;7.33;4.57;;;;;;;9.53;87.44;95183.19;5032466;28;20254;-76
2023/05/12 07:32:01;;;;;;;7.80;4.83;;;;;;;9.53;87.82;95177.94;5028691;28;20211;-77
2023/05/12 07:34:26;;;;;;;6.50;4.27;;;;;;;9.60;87.53;95183.25;5012433;28;20234;-77
2023/05/12 07:36:52;;;;;;;10.73;5.27;;;;;;;9.72;87.23;95179.84;5012496;28;20184;-78
2023/05/12 07:39:22;;;;;;;10.70;5.70;;;;;;;9.79;86.72;95185.09;5016735;28;20169;-76
2023/05/12 07:41:52;;;;;;;6.17;4.97;;;;;;;9.85;87.92;95184.34;5015527;28;20249;-77
2023/05/12 07:44:17;;;;;;;6.93;4.30;;;;;;;10.02;86.46;95190.84;5027683;28;20171;-78
2023/05/12 07:46:43;;;;;;;7.80;4.80;;;;;;;9.98;85.98;95202.75;5022189;28;20188;-80
2023/05/12 07:49:08;;;;;;;9.70;4.50;;;;;;;9.73;86.14;95186.72;5020550;28;20615;-78
2023/05/12 07:51:34;;;;;;;7.43;4.67;;;;;;;9.72;87.16;95179.03;5012229;28;20168;-81
2023/05/12 07:53:59;;;;;;;4.97;4.00;;;;;;;9.70;86.75;95173.13;5003751;28;20168;-80
2023/05/12 07:56:25;;;;;;;9.10;4.97;;;;;;;9.90;87.66;95187.16;5008670;28;20175;-79
2023/05/12 07:58:50;;;;;;;8.40;4.47;;;;;;;10.09;86.62;95178.53;5016675;28;20176;-77
2023/05/12 08:01:16;;;;;;;7.07;4.00;;;;;;;10.25;86.54;95179.19;5022946;28;20196;-78
2023/05/12 08:03:41;;;;;;;9.13;4.33;;;;;;;10.26;85.96;95150.03;5019609;28;20698;-78
2023/05/12 08:06:06;;;;;;;5.77;4.10;;;;;;;10.78;85.00;95175.56;5003413;28;20184;-78
2023/05/12 08:08:33;;;;;;;6.17;4.97;;;;;;;10.90;83.28;95173.91;5020878;28;20177;-78
2023/05/12 08:10:58;;;;;;;9.73;5.07;;;;;;;11.02;82.19;95178.56;5018656;28;20220;-78
2023/05/12 08:13:25;;;;;;;9.30;4.13;;;;;;;10.94;81.95;95179.59;5005277;28;20167;-78
2023/05/12 08:15:50;;;;;;;6.93;4.80;;;;;;;10.97;80.96;95176.56;5022857;28;20182;-78
2023/05/12 08:18:16;;;;;;;5.73;4.10;;;;;;;11.01;80.93;95174.31;5023853;28;20556;-78
2023/05/12 08:20:41;;;;;;;9.43;4.27;;;;;;;11.22;80.50;95187.25;5020510;28;20188;-78
2023/05/12 08:23:07;;;;;;;22.73;4.93;;;;;;;11.29;79.57;95183.56;5009735;28;20643;-80
2023/05/12 08:25:34;;;;;;;9.70;4.80;;;;;;;11.23;79.45;95194.94;5019256;28;20172;-78
2023/05/12 08:28:00;;;;;;;6.80;4.70;;;;;;;11.21;79.75;95185.63;5017695;28;20536;-77
2023/05/12 08:30:26;;;;;;;5.87;4.03;;;;;;;11.17;80.13;95176.50;5019193;28;20252;-81
2023/05/12 08:32:53;;;;;;;6.47;4.27;;;;;;;11.06;80.09;95187.69;5019987;28;20222;-80
2023/05/12 08:35:18;;;;;;;8.87;4.93;;;;;;;11.06;79.85;95182.41;5022644;28;20176;-82
2023/05/12 08:37:44;;;;;;;10.57;4.37;;;;;;;11.22;79.61;95176.69;5020295;28;20947;-82
2023/05/12 08:40:22;;;;;;;12.93;4.60;;;;;;;11.50;78.85;95192.25;5022965;28;20188;-83
2023/05/12 08:43:16;;;;;;;5.83;4.30;;;;;;;11.56;77.86;95192.22;4994254;28;20177;-81
2023/05/12 08:45:43;;;;;;;8.87;5.03;;;;;;;11.52;77.54;95177.81;5013469;28;20302;-81
2023/05/12 08:48:09;;;;;;;8.20;4.10;;;;;;;11.65;77.28;95171.69;5016482;28;20185;-83
2023/05/12 08:50:36;;;;;;;7.57;4.60;;;;;;;11.86;76.38;95191.69;5011827;28;20160;-80
2023/05/12 08:53:04;;;;;;;6.60;4.50;;;;;;;11.73;76.98;95195.19;5021631;28;20179;-79
2023/05/12 08:55:30;;;;;;;10.27;4.77;;;;;;;11.43;76.60;95168.50;5025380;28;20629;-80
2023/05/12 08:57:57;;;;;;;7.30;4.57;;;;;;;11.50;76.75;95193.03;5023797;28;20234;-79
2023/05/12 09:00:24;;;;;;;8.50;4.03;;;;;;;11.44;76.14;95195.69;5025177;28;20196;-79
2023/05/12 09:02:51;;;;;;;8.43;4.63;;;;;;;11.49;76.53;95194.06;5017740;28;20168;-78
2023/05/12 09:05:17;;;;;;;6.20;4.03;;;;;;;11.37;76.68;95176.44;5014869;28;20226;-79
2023/05/12 09:07:43;;;;;;;6.90;4.30;;;;;;;11.55;76.75;95187.94;5013279;28;20169;-80
2023/05/12 09:10:16;;;;;;;7.03;4.40;;;;;;;11.55;76.10;95181.88;5003581;28;20172;-78
2023/05/12 09:12:44;;;;;;;5.50;4.00;;;;;;;11.66;75.89;95179.41;5014911;28;20579;-83
2023/05/12 09:15:17;;;;;;;7.60;4.90;;;;;;;11.73;74.95;95171.44;5002621;28;20208;-79
2023/05/12 09:17:42;;;;;;;7.27;4.33;;;;;;;11.81;75.63;95163.31;5016259;28;20180;-79
2023/05/12 09:20:09;;;;;;;16.40;5.50;;;;;;;11.63;74.78;95142.88;5027018;28;20192;-79
2023/05/12 09:22:34;;;;;;;7.90;3.93;;;;;;;11.83;74.29;95178.94;5019976;28;20195;-79
2023/05/12 09:25:00;;;;;;;4.93;3.37;;;;;;;11.81;74.33;95170.44;5019410;28;20685;-78
2023/05/12 09:27:27;;;;;;;6.17;3.90;;;;;;;11.70;75.13;95164.75;5022204;28;20199;-79
2023/05/12 09:29:52;;;;;;;7.33;4.10;;;;;;;11.73;75.42;95167.00;5022270;28;20180;-79
2023/05/12 09:32:30;;;;;;;7.37;4.07;;;;;;;11.84;75.18;95164.75;5022825;28;20180;-80
2023/05/12 09:34:56;;;;;;;6.37;3.87;;;;;;;11.55;75.28;95155.50;5019723;28;20219;-80
2023/05/12 09:37:30;;;;;;;9.50;4.27;;;;;;;11.58;76.05;95169.09;5021677;28;20206;-80
2023/05/12 09:40:03;;;;;;;5.43;3.80;;;;;;;11.47;75.61;95156.56;5021846;28;20180;-79
2023/05/12 09:42:30;;;;;;;8.63;4.07;;;;;;;11.63;75.47;95163.97;5026637;28;20171;-79
2023/05/12 09:45:08;;;;;;;7.97;4.83;;;;;;;11.35;75.49;95119.47;5025338;28;20195;-79
2023/05/12 09:47:36;;;;;;;10.27;4.67;;;;;;;11.83;75.52;95155.22;5001592;28;20990;-79
2023/05/12 09:50:03;;;;;;;7.97;4.77;;;;;;;11.90;74.25;95172.63;5026943;28;20306;-79
2023/05/12 09:52:31;;;;;;;10.57;4.17;;;;;;;11.98;74.24;95167.09;5002528;28;20226;-79
2023/05/12 09:55:10;;;;;;;7.70;3.97;;;;;;;12.09;73.83;95166.44;5019005;28;20180;-79
2023/05/12 09:57:40;;;;;;;9.73;4.70;;;;;;;12.33;73.96;95169.31;5007200;28;20168;-81
2023/05/12 10:00:12;;;;;;;4.83;4.13;;;;;;;12.59;72.35;95163.84;5007329;28;20656;-82
2023/05/12 10:02:41;;;;;;;7.83;4.87;;;;;;;12.64;73.36;95145.50;5022880;28;20175;-80
2023/05/12 10:05:13;;;;;;;8.07;4.30;;;;;;;12.96;70.88;95172.69;5020426;28;20660;-80
2023/05/12 10:07:39;;;;;;;12.83;4.10;;;;;;;12.78;69.66;95157.59;5022426;28;20173;-79
2023/05/12 10:10:06;;;;;;;5.43;3.90;;;;;;;12.89;70.33;95161.34;5023727;28;20683;-82
2023/05/12 10:12:34;;;;;;;4.63;4.03;;;;;;;12.87;70.04;95130.91;5024658;28;20214;-79
2023/05/12 10:15:01;;;;;;;6.57;3.70;;;;;;;12.74;69.44;95139.72;5018406;28;20176;-80
2023/05/12 10:17:27;;;;;;;10.23;4.20;;;;;;;12.83;70.34;95147.16;5017823;28;20280;-81
2023/05/12 10:19:54;;;;;;;8.13;3.80;;;;;;;12.92;68.59;95144.25;5024324;28;20278;-78
2023/05/12 10:22:20;;;;;;;5.23;3.13;;;;;;;13.19;68.01;95161.50;5013623;28;20172;-80
2023/05/12 10:24:47;;;;;;;5.60;2.97;;;;;;;13.12;66.63;95158.91;5024167;28;20696;-80
2023/05/12 10:27:14;;;;;;;7.03;3.87;;;;;;;13.21;67.39;95156.81;5024305;28;20199;-82
2023/05/12 10:29:40;;;;;;;7.73;3.93;;;;;;;13.29;67.12;95147.78;5017726;28;20176;-79
2023/05/12 10:32:06;;;;;;;4.67;3.30;;;;;;;13.34;66.64;95159.28;5021406;28;20183;-82
2023/05/12 10:34:36;;;;;;;4.40;3.70;;;;;;;13.09;67.22;95135.53;5009045;28;20177;-80
2023/05/12 10:37:09;;;;;;;17.00;4.57;;;;;;;13.44;67.64;95150.84;5027355;28;20182;-83
2023/05/12 10:39:36;;;;;;;7.60;3.30;;;;;;;13.56;68.15;95151.75;5013364;28;20161;-80
2023/05/12 10:42:07;;;;;;;7.57;3.43;;;;;;;13.74;66.17;95151.72;5023811;28;20176;-81
2023/05/12 10:44:34;;;;;;;6.37;3.67;;;;;;;14.05;66.02;95148.03;5023680;28;20160;-79
2023/05/12 10:47:00;;;;;;;5.67;4.00;;;;;;;14.33;64.68;95134.22;5016724;28;20558;-81
2023/05/12 10:49:33;;;;;;;5.73;3.43;;;;;;;14.19;63.32;95127.47;5020832;28;20243;-81
2023/05/12 10:52:00;;;;;;;6.77;3.03;;;;;;;14.16;64.40;95152.59;5019607;28;20184;-80
2023/05/12 10:54:25;;;;;;;4.83;3.00;;;;;;;14.13;64.42;95125.75;4997863;28;20613;-82
2023/05/12 10:56:52;;;;;;;4.93;3.50;;;;;;;14.48;65.87;95144.41;5022534;28;20200;-80
2023/05/12 10:59:22;;;;;;;4.17;3.10;;;;;;;14.54;63.32;95138.19;5014541;28;20170;-82
2023/05/12 11:02:01;;;;;;;3.77;3.07;;;;;;;14.64;63.30;95146.38;5015824;28;20200;-77
2023/05/12 11:04:55;;;;;;;4.87;3.97;;;;;;;14.33;63.64;95123.63;5024013;28;20636;-81
2023/05/12 11:07:22;;;;;;;3.30;3.00;;;;;;;14.55;63.46;95137.94;5023951;28;20211;-79
2023/05/12 11:09:49;;;;;;;5.43;3.47;;;;;;;14.38;62.54;95117.63;5026907;28;20169;-81
2023/05/12 11:12:15;;;;;;;5.77;3.10;;;;;;;14.28;64.07;95136.72;5020769;28;20712;-80
2023/05/12 11:14:42;;;;;;;4.03;2.90;;;;;;;14.17;63.12;95146.25;5022894;28;20179;-83
2023/05/12 11:17:08;;;;;;;7.37;3.30;;;;;;;14.04;64.57;95142.97;5014235;28;20176;-83
2023/05/12 11:19:34;;;;;;;3.70;3.00;;;;;;;14.07;65.42;95131.94;5003584;28;20644;-81
2023/05/12 11:22:08;;;;;;;4.67;2.93;;;;;;;14.34;65.08;95138.47;5011492;28;20175;-80
2023/05/12 11:24:35;;;;;;;6.70;3.20;;;;;;;14.31;63.51;95120.38;5021139;28;20259;-79
2023/05/12 11:27:00;;;;;;;6.03;3.10;;;;;;;14.57;64.06;95151.78;5018354;28;20172;-82
2023/05/12 11:29:26;;;;;;;7.17;3.27;;;;;;;14.35;63.27;95127.66;5016792;28;20229;-81
2023/05/12 11:31:52;;;;;;;3.90;3.20;;;;;;;14.27;64.31;95127.19;5026995;28;20270;-81
2023/05/12 11:34:24;;;;;;;5.53;2.93;;;;;;;14.40;63.60;95153.47;5021257;28;20221;-80
2023/05/12 11:36:53;;;;;;;5.53;3.40;;;;;;;14.37;64.62;95153.88;5021945;28;20514;-80